sensor_id;sensor_type;location;lat;lon;timestamp;P1;durP1;ratioP1;P2;durP2;ratioP2
92;SDS011;16232;48.800;9.002;2023-11-19T00:01:41;2.60;;;2.40;;
92;SDS011;16232;48.800;9.002;2023-11-19T00:04:27;3.40;;;2.50;;
92;SDS011;16232;48.800;9.002;2023-11-19T00:07:13;5.13;;;3.37;;
92;SDS011;16232;48.800;9.002;2023-11-19T00:09:59;3.30;;;2.60;;
92;SDS011;16232;48.800;9.002;2023-11-19T00:12:53;3.30;;;3.00;;
92;SDS011;16232;48.800;9.002;2023-11-19T00:15:41;3.40;;;3.07;;
92;SDS011;16232;48.800;9.002;2023-11-19T00:18:28;3.17;;;2.30;;
92;SDS011;16232;48.800;9.002;2023-11-19T00:21:14;2.50;;;2.30;;
92;SDS011;16232;48.800;9.002;2023-11-19T00:24:01;1.60;;;1.50;;
92;SDS011;16232;48.800;9.002;2023-11-19T00:26:48;2.80;;;1.83;;
92;SDS011;16232;48.800;9.002;2023-11-19T00:29:34;1.33;;;1.20;;
92;SDS011;16232;48.800;9.002;2023-11-19T00:32:21;1.57;;;1.00;;
92;SDS011;16232;48.800;9.002;2023-11-19T00:35:08;2.07;;;1.10;;
92;SDS011;16232;48.800;9.002;2023-11-19T00:37:54;1.33;;;1.10;;
92;SDS011;16232;48.800;9.002;2023-11-19T00:40:41;1.60;;;1.20;;
92;SDS011;16232;48.800;9.002;2023-11-19T00:43:28;0.50;;;0.50;;
92;SDS011;16232;48.800;9.002;2023-11-19T00:46:14;1.17;;;0.77;;
92;SDS011;16232;48.800;9.002;2023-11-19T00:49:01;0.73;;;0.73;;
92;SDS011;16232;48.800;9.002;2023-11-19T00:51:47;0.40;;;0.33;;
92;SDS011;16232;48.800;9.002;2023-11-19T00:54:33;1.20;;;0.60;;
92;SDS011;16232;48.800;9.002;2023-11-19T00:57:19;0.73;;;0.60;;
92;SDS011;16232;48.800;9.002;2023-11-19T01:00:06;0.67;;;0.67;;
92;SDS011;16232;48.800;9.002;2023-11-19T01:03:01;0.83;;;0.60;;
92;SDS011;16232;48.800;9.002;2023-11-19T01:05:49;2.50;;;0.60;;
92;SDS011;16232;48.800;9.002;2023-11-19T01:08:36;0.83;;;0.50;;
92;SDS011;16232;48.800;9.002;2023-11-19T01:11:22;0.67;;;0.57;;
92;SDS011;16232;48.800;9.002;2023-11-19T01:14:08;0.40;;;0.40;;
92;SDS011;16232;48.800;9.002;2023-11-19T01:16:54;1.63;;;0.50;;
92;SDS011;16232;48.800;9.002;2023-11-19T01:19:40;0.53;;;0.40;;
92;SDS011;16232;48.800;9.002;2023-11-19T01:22:27;0.40;;;0.40;;
92;SDS011;16232;48.800;9.002;2023-11-19T01:25:14;0.73;;;0.40;;
92;SDS011;16232;48.800;9.002;2023-11-19T01:28:00;0.40;;;0.40;;
92;SDS011;16232;48.800;9.002;2023-11-19T01:30:46;0.40;;;0.30;;
92;SDS011;16232;48.800;9.002;2023-11-19T01:33:32;0.70;;;0.30;;
92;SDS011;16232;48.800;9.002;2023-11-19T01:36:18;0.57;;;0.40;;
92;SDS011;16232;48.800;9.002;2023-11-19T01:39:06;0.60;;;0.20;;
92;SDS011;16232;48.800;9.002;2023-11-19T01:41:52;2.30;;;0.20;;
92;SDS011;16232;48.800;9.002;2023-11-19T01:44:38;0.30;;;0.20;;
92;SDS011;16232;48.800;9.002;2023-11-19T01:47:24;0.70;;;0.20;;
92;SDS011;16232;48.800;9.002;2023-11-19T01:50:10;0.47;;;0.40;;
92;SDS011;16232;48.800;9.002;2023-11-19T01:52:57;0.93;;;0.23;;
92;SDS011;16232;48.800;9.002;2023-11-19T01:55:45;1.40;;;0.20;;
92;SDS011;16232;48.800;9.002;2023-11-19T01:58:32;0.53;;;0.30;;
92;SDS011;16232;48.800;9.002;2023-11-19T02:01:18;0.50;;;0.40;;
92;SDS011;16232;48.800;9.002;2023-11-19T02:04:04;0.40;;;0.20;;
92;SDS011;16232;48.800;9.002;2023-11-19T02:06:50;0.60;;;0.30;;
92;SDS011;16232;48.800;9.002;2023-11-19T02:09:37;0.20;;;0.20;;
92;SDS011;16232;48.800;9.002;2023-11-19T02:12:24;0.53;;;0.53;;
92;SDS011;16232;48.800;9.002;2023-11-19T02:15:11;0.67;;;0.20;;
92;SDS011;16232;48.800;9.002;2023-11-19T02:18:00;1.53;;;0.20;;
92;SDS011;16232;48.800;9.002;2023-11-19T02:21:02;0.20;;;0.20;;
92;SDS011;16232;48.800;9.002;2023-11-19T02:23:49;1.70;;;0.57;;
92;SDS011;16232;48.800;9.002;2023-11-19T02:26:36;1.67;;;0.20;;
92;SDS011;16232;48.800;9.002;2023-11-19T02:29:26;0.73;;;0.43;;
92;SDS011;16232;48.800;9.002;2023-11-19T02:32:12;0.17;;;0.13;;
92;SDS011;16232;48.800;9.002;2023-11-19T02:34:59;0.10;;;0.10;;
92;SDS011;16232;48.800;9.002;2023-11-19T02:37:45;0.10;;;0.10;;
92;SDS011;16232;48.800;9.002;2023-11-19T02:40:31;0.17;;;0.17;;
92;SDS011;16232;48.800;9.002;2023-11-19T02:43:17;0.17;;;0.17;;
92;SDS011;16232;48.800;9.002;2023-11-19T02:46:05;0.97;;;0.30;;
92;SDS011;16232;48.800;9.002;2023-11-19T02:48:52;0.93;;;0.20;;
92;SDS011;16232;48.800;9.002;2023-11-19T02:51:38;0.97;;;0.57;;
92;SDS011;16232;48.800;9.002;2023-11-19T02:54:24;3.50;;;0.40;;
92;SDS011;16232;48.800;9.002;2023-11-19T02:57:11;2.30;;;0.20;;
92;SDS011;16232;48.800;9.002;2023-11-19T02:59:57;0.10;;;0.10;;
92;SDS011;16232;48.800;9.002;2023-11-19T03:02:44;0.50;;;0.20;;
92;SDS011;16232;48.800;9.002;2023-11-19T03:05:32;0.70;;;0.23;;
92;SDS011;16232;48.800;9.002;2023-11-19T03:08:18;0.60;;;0.27;;
92;SDS011;16232;48.800;9.002;2023-11-19T03:11:04;0.17;;;0.17;;
92;SDS011;16232;48.800;9.002;2023-11-19T03:13:49;0.10;;;0.10;;
92;SDS011;16232;48.800;9.002;2023-11-19T03:16:35;0.20;;;0.20;;
92;SDS011;16232;48.800;9.002;2023-11-19T03:19:23;0.30;;;0.20;;
92;SDS011;16232;48.800;9.002;2023-11-19T03:22:10;0.43;;;0.20;;
92;SDS011;16232;48.800;9.002;2023-11-19T03:24:56;0.10;;;0.10;;
92;SDS011;16232;48.800;9.002;2023-11-19T03:27:42;0.13;;;0.13;;
92;SDS011;16232;48.800;9.002;2023-11-19T03:30:29;0.10;;;0.10;;
92;SDS011;16232;48.800;9.002;2023-11-19T03:33:16;0.20;;;0.20;;
92;SDS011;16232;48.800;9.002;2023-11-19T03:36:03;0.33;;;0.17;;
92;SDS011;16232;48.800;9.002;2023-11-19T03:38:50;0.50;;;0.10;;
92;SDS011;16232;48.800;9.002;2023-11-19T03:41:36;0.37;;;0.10;;
92;SDS011;16232;48.800;9.002;2023-11-19T03:44:22;0.50;;;0.20;;
92;SDS011;16232;48.800;9.002;2023-11-19T03:47:10;0.33;;;0.27;;
92;SDS011;16232;48.800;9.002;2023-11-19T03:49:56;0.30;;;0.10;;
92;SDS011;16232;48.800;9.002;2023-11-19T03:52:43;1.30;;;0.20;;
92;SDS011;16232;48.800;9.002;2023-11-19T03:55:29;0.17;;;0.10;;
92;SDS011;16232;48.800;9.002;2023-11-19T03:58:16;0.30;;;0.20;;
92;SDS011;16232;48.800;9.002;2023-11-19T04:01:02;0.60;;;0.20;;
92;SDS011;16232;48.800;9.002;2023-11-19T04:03:48;0.23;;;0.13;;
92;SDS011;16232;48.800;9.002;2023-11-19T04:06:34;0.10;;;0.10;;
92;SDS011;16232;48.800;9.002;2023-11-19T04:09:21;0.80;;;0.20;;
92;SDS011;16232;48.800;9.002;2023-11-19T04:12:07;0.30;;;0.10;;
92;SDS011;16232;48.800;9.002;2023-11-19T04:14:54;0.00;;;0.00;;
92;SDS011;16232;48.800;9.002;2023-11-19T04:17:40;0.20;;;0.10;;
92;SDS011;16232;48.800;9.002;2023-11-19T04:20:26;0.00;;;0.00;;
92;SDS011;16232;48.800;9.002;2023-11-19T04:23:12;0.10;;;0.10;;
92;SDS011;16232;48.800;9.002;2023-11-19T04:26:02;0.00;;;0.00;;
92;SDS011;16232;48.800;9.002;2023-11-19T04:28:48;0.10;;;0.00;;
92;SDS011;16232;48.800;9.002;2023-11-19T04:31:35;0.00;;;0.00;;
92;SDS011;16232;48.800;9.002;2023-11-19T04:34:21;0.10;;;0.10;;
92;SDS011;16232;48.800;9.002;2023-11-19T04:37:07;1.00;;;0.10;;
92;SDS011;16232;48.800;9.002;2023-11-19T04:39:54;0.63;;;0.10;;
92;SDS011;16232;48.800;9.002;2023-11-19T04:42:41;0.10;;;0.10;;
92;SDS011;16232;48.800;9.002;2023-11-19T04:45:27;0.20;;;0.10;;
92;SDS011;16232;48.800;9.002;2023-11-19T04:48:13;0.10;;;0.10;;
92;SDS011;16232;48.800;9.002;2023-11-19T04:50:59;0.37;;;0.10;;
92;SDS011;16232;48.800;9.002;2023-11-19T04:53:45;0.27;;;0.00;;
92;SDS011;16232;48.800;9.002;2023-11-19T04:56:31;0.10;;;0.10;;
92;SDS011;16232;48.800;9.002;2023-11-19T04:59:18;0.10;;;0.10;;
92;SDS011;16232;48.800;9.002;2023-11-19T05:02:04;0.83;;;0.20;;
92;SDS011;16232;48.800;9.002;2023-11-19T05:04:50;0.10;;;0.10;;
92;SDS011;16232;48.800;9.002;2023-11-19T05:07:36;0.10;;;0.10;;
92;SDS011;16232;48.800;9.002;2023-11-19T05:10:22;0.87;;;0.20;;
92;SDS011;16232;48.800;9.002;2023-11-19T05:13:08;0.40;;;0.10;;
92;SDS011;16232;48.800;9.002;2023-11-19T05:15:55;0.20;;;0.13;;
92;SDS011;16232;48.800;9.002;2023-11-19T05:18:41;0.10;;;0.10;;
92;SDS011;16232;48.800;9.002;2023-11-19T05:21:28;0.10;;;0.10;;
92;SDS011;16232;48.800;9.002;2023-11-19T05:24:13;0.87;;;0.27;;
92;SDS011;16232;48.800;9.002;2023-11-19T05:26:59;0.20;;;0.20;;
92;SDS011;16232;48.800;9.002;2023-11-19T05:29:45;0.37;;;0.20;;
92;SDS011;16232;48.800;9.002;2023-11-19T05:32:33;0.20;;;0.20;;
92;SDS011;16232;48.800;9.002;2023-11-19T05:35:19;0.10;;;0.10;;
92;SDS011;16232;48.800;9.002;2023-11-19T05:38:05;0.20;;;0.20;;
92;SDS011;16232;48.800;9.002;2023-11-19T05:40:51;0.20;;;0.10;;
92;SDS011;16232;48.800;9.002;2023-11-19T05:43:37;0.20;;;0.20;;
92;SDS011;16232;48.800;9.002;2023-11-19T05:46:24;0.30;;;0.20;;
92;SDS011;16232;48.800;9.002;2023-11-19T05:49:12;1.00;;;0.10;;
92;SDS011;16232;48.800;9.002;2023-11-19T05:51:58;0.20;;;0.20;;
92;SDS011;16232;48.800;9.002;2023-11-19T05:54:47;0.20;;;0.20;;
92;SDS011;16232;48.800;9.002;2023-11-19T05:57:35;0.30;;;0.30;;
92;SDS011;16232;48.800;9.002;2023-11-19T06:00:21;0.10;;;0.10;;
92;SDS011;16232;48.800;9.002;2023-11-19T06:03:07;0.20;;;0.10;;
92;SDS011;16232;48.800;9.002;2023-11-19T06:05:54;0.73;;;0.30;;
92;SDS011;16232;48.800;9.002;2023-11-19T06:08:40;0.30;;;0.20;;
92;SDS011;16232;48.800;9.002;2023-11-19T06:11:26;0.40;;;0.17;;
92;SDS011;16232;48.800;9.002;2023-11-19T06:14:12;0.40;;;0.30;;
92;SDS011;16232;48.800;9.002;2023-11-19T06:16:58;0.27;;;0.20;;
92;SDS011;16232;48.800;9.002;2023-11-19T06:19:44;0.67;;;0.50;;
92;SDS011;16232;48.800;9.002;2023-11-19T06:22:32;0.83;;;0.40;;
92;SDS011;16232;48.800;9.002;2023-11-19T06:25:18;0.50;;;0.30;;
92;SDS011;16232;48.800;9.002;2023-11-19T06:28:04;0.93;;;0.40;;
92;SDS011;16232;48.800;9.002;2023-11-19T06:30:50;0.30;;;0.20;;
92;SDS011;16232;48.800;9.002;2023-11-19T06:33:36;0.27;;;0.27;;
92;SDS011;16232;48.800;9.002;2023-11-19T06:36:23;0.80;;;0.33;;
92;SDS011;16232;48.800;9.002;2023-11-19T06:39:11;0.20;;;0.20;;
92;SDS011;16232;48.800;9.002;2023-11-19T06:41:58;0.87;;;0.30;;
92;SDS011;16232;48.800;9.002;2023-11-19T06:44:44;0.27;;;0.20;;
92;SDS011;16232;48.800;9.002;2023-11-19T06:47:30;0.37;;;0.20;;
92;SDS011;16232;48.800;9.002;2023-11-19T06:50:16;0.20;;;0.20;;
92;SDS011;16232;48.800;9.002;2023-11-19T06:53:02;0.20;;;0.20;;
92;SDS011;16232;48.800;9.002;2023-11-19T06:55:51;1.67;;;0.60;;
92;SDS011;16232;48.800;9.002;2023-11-19T06:58:37;0.50;;;0.47;;
92;SDS011;16232;48.800;9.002;2023-11-19T07:01:23;0.83;;;0.53;;
92;SDS011;16232;48.800;9.002;2023-11-19T07:04:10;0.60;;;0.40;;
92;SDS011;16232;48.800;9.002;2023-11-19T07:06:56;0.93;;;0.40;;
92;SDS011;16232;48.800;9.002;2023-11-19T07:09:42;0.60;;;0.30;;
92;SDS011;16232;48.800;9.002;2023-11-19T07:12:29;0.20;;;0.20;;
92;SDS011;16232;48.800;9.002;2023-11-19T07:15:15;0.80;;;0.40;;
92;SDS011;16232;48.800;9.002;2023-11-19T07:18:02;0.87;;;0.50;;
92;SDS011;16232;48.800;9.002;2023-11-19T07:20:48;0.70;;;0.47;;
92;SDS011;16232;48.800;9.002;2023-11-19T07:23:34;0.57;;;0.37;;
92;SDS011;16232;48.800;9.002;2023-11-19T07:26:20;1.47;;;0.40;;
92;SDS011;16232;48.800;9.002;2023-11-19T07:29:08;0.40;;;0.40;;
92;SDS011;16232;48.800;9.002;2023-11-19T07:31:54;1.60;;;0.50;;
92;SDS011;16232;48.800;9.002;2023-11-19T07:34:40;1.63;;;0.40;;
92;SDS011;16232;48.800;9.002;2023-11-19T07:37:26;0.90;;;0.50;;
92;SDS011;16232;48.800;9.002;2023-11-19T07:40:12;1.67;;;0.70;;
92;SDS011;16232;48.800;9.002;2023-11-19T07:42:58;0.43;;;0.43;;
92;SDS011;16232;48.800;9.002;2023-11-19T07:45:45;0.40;;;0.37;;
92;SDS011;16232;48.800;9.002;2023-11-19T07:48:31;1.27;;;0.57;;
92;SDS011;16232;48.800;9.002;2023-11-19T07:51:18;0.53;;;0.30;;
92;SDS011;16232;48.800;9.002;2023-11-19T07:54:05;0.60;;;0.50;;
92;SDS011;16232;48.800;9.002;2023-11-19T07:56:51;1.70;;;0.40;;
92;SDS011;16232;48.800;9.002;2023-11-19T07:59:37;0.67;;;0.40;;
92;SDS011;16232;48.800;9.002;2023-11-19T08:02:25;0.50;;;0.30;;
92;SDS011;16232;48.800;9.002;2023-11-19T08:05:11;0.47;;;0.30;;
92;SDS011;16232;48.800;9.002;2023-11-19T08:07:57;0.43;;;0.40;;
92;SDS011;16232;48.800;9.002;2023-11-19T08:10:43;1.60;;;0.90;;
92;SDS011;16232;48.800;9.002;2023-11-19T08:13:31;0.77;;;0.50;;
92;SDS011;16232;48.800;9.002;2023-11-19T08:16:17;0.60;;;0.60;;
92;SDS011;16232;48.800;9.002;2023-11-19T08:19:04;0.40;;;0.30;;
92;SDS011;16232;48.800;9.002;2023-11-19T08:21:50;2.93;;;1.83;;
92;SDS011;16232;48.800;9.002;2023-11-19T08:24:36;2.53;;;1.60;;
92;SDS011;16232;48.800;9.002;2023-11-19T08:27:22;1.17;;;0.60;;
92;SDS011;16232;48.800;9.002;2023-11-19T08:30:10;1.23;;;1.13;;
92;SDS011;16232;48.800;9.002;2023-11-19T08:32:56;0.97;;;0.93;;
92;SDS011;16232;48.800;9.002;2023-11-19T08:35:48;0.53;;;0.53;;
92;SDS011;16232;48.800;9.002;2023-11-19T08:38:34;2.67;;;1.50;;
92;SDS011;16232;48.800;9.002;2023-11-19T08:41:20;1.10;;;0.80;;
92;SDS011;16232;48.800;9.002;2023-11-19T08:44:06;0.70;;;0.70;;
92;SDS011;16232;48.800;9.002;2023-11-19T08:46:52;3.47;;;1.33;;
92;SDS011;16232;48.800;9.002;2023-11-19T08:49:38;0.97;;;0.90;;
92;SDS011;16232;48.800;9.002;2023-11-19T08:52:25;0.80;;;0.77;;
92;SDS011;16232;48.800;9.002;2023-11-19T08:55:11;0.87;;;0.80;;
92;SDS011;16232;48.800;9.002;2023-11-19T08:57:58;1.23;;;0.60;;
92;SDS011;16232;48.800;9.002;2023-11-19T09:00:44;0.97;;;0.50;;
92;SDS011;16232;48.800;9.002;2023-11-19T09:03:30;0.50;;;0.50;;
92;SDS011;16232;48.800;9.002;2023-11-19T09:06:16;0.60;;;0.57;;
92;SDS011;16232;48.800;9.002;2023-11-19T09:09:04;1.80;;;1.07;;
92;SDS011;16232;48.800;9.002;2023-11-19T09:11:50;1.40;;;0.60;;
92;SDS011;16232;48.800;9.002;2023-11-19T09:14:35;0.80;;;0.47;;
92;SDS011;16232;48.800;9.002;2023-11-19T09:17:22;1.33;;;0.63;;
92;SDS011;16232;48.800;9.002;2023-11-19T09:20:08;0.70;;;0.40;;
92;SDS011;16232;48.800;9.002;2023-11-19T09:22:56;0.67;;;0.50;;
92;SDS011;16232;48.800;9.002;2023-11-19T09:25:43;0.77;;;0.50;;
92;SDS011;16232;48.800;9.002;2023-11-19T09:28:29;4.63;;;1.83;;
92;SDS011;16232;48.800;9.002;2023-11-19T09:31:15;0.70;;;0.40;;
92;SDS011;16232;48.800;9.002;2023-11-19T09:34:02;1.27;;;0.50;;
92;SDS011;16232;48.800;9.002;2023-11-19T09:36:48;5.33;;;2.90;;
92;SDS011;16232;48.800;9.002;2023-11-19T09:39:34;1.03;;;0.57;;
92;SDS011;16232;48.800;9.002;2023-11-19T09:42:21;2.00;;;0.60;;
92;SDS011;16232;48.800;9.002;2023-11-19T09:45:12;0.80;;;0.37;;
92;SDS011;16232;48.800;9.002;2023-11-19T09:47:59;1.13;;;0.67;;
92;SDS011;16232;48.800;9.002;2023-11-19T09:50:46;0.60;;;0.60;;
92;SDS011;16232;48.800;9.002;2023-11-19T09:53:33;0.87;;;0.60;;
92;SDS011;16232;48.800;9.002;2023-11-19T09:56:19;1.50;;;1.17;;
92;SDS011;16232;48.800;9.002;2023-11-19T09:59:07;1.60;;;0.70;;
92;SDS011;16232;48.800;9.002;2023-11-19T10:01:55;2.03;;;0.63;;
92;SDS011;16232;48.800;9.002;2023-11-19T10:04:41;0.33;;;0.30;;
92;SDS011;16232;48.800;9.002;2023-11-19T10:07:29;0.90;;;0.30;;
92;SDS011;16232;48.800;9.002;2023-11-19T10:10:16;2.60;;;0.70;;
92;SDS011;16232;48.800;9.002;2023-11-19T10:13:03;1.23;;;1.10;;
92;SDS011;16232;48.800;9.002;2023-11-19T10:15:50;1.60;;;1.27;;
92;SDS011;16232;48.800;9.002;2023-11-19T10:18:36;3.73;;;1.53;;
92;SDS011;16232;48.800;9.002;2023-11-19T10:21:23;1.60;;;1.10;;
92;SDS011;16232;48.800;9.002;2023-11-19T10:24:11;2.23;;;1.13;;
92;SDS011;16232;48.800;9.002;2023-11-19T10:26:57;1.87;;;0.80;;
92;SDS011;16232;48.800;9.002;2023-11-19T10:29:44;1.50;;;0.40;;
92;SDS011;16232;48.800;9.002;2023-11-19T10:32:32;1.10;;;0.77;;
92;SDS011;16232;48.800;9.002;2023-11-19T10:35:18;2.50;;;1.10;;
92;SDS011;16232;48.800;9.002;2023-11-19T10:38:13;1.53;;;1.00;;
92;SDS011;16232;48.800;9.002;2023-11-19T10:40:59;1.40;;;0.73;;
92;SDS011;16232;48.800;9.002;2023-11-19T10:43:45;2.00;;;1.00;;
92;SDS011;16232;48.800;9.002;2023-11-19T10:46:37;1.03;;;0.63;;
92;SDS011;16232;48.800;9.002;2023-11-19T10:49:25;2.27;;;0.57;;
92;SDS011;16232;48.800;9.002;2023-11-19T10:52:11;1.70;;;0.70;;
92;SDS011;16232;48.800;9.002;2023-11-19T10:54:58;1.47;;;0.90;;
92;SDS011;16232;48.800;9.002;2023-11-19T10:57:47;1.17;;;0.70;;
92;SDS011;16232;48.800;9.002;2023-11-19T11:00:37;1.40;;;1.00;;
92;SDS011;16232;48.800;9.002;2023-11-19T11:03:24;0.70;;;0.40;;
92;SDS011;16232;48.800;9.002;2023-11-19T11:06:13;0.40;;;0.40;;
92;SDS011;16232;48.800;9.002;2023-11-19T11:08:59;1.53;;;0.67;;
92;SDS011;16232;48.800;9.002;2023-11-19T11:11:46;1.93;;;0.70;;
92;SDS011;16232;48.800;9.002;2023-11-19T11:14:32;3.73;;;2.03;;
92;SDS011;16232;48.800;9.002;2023-11-19T11:17:19;2.37;;;1.00;;
92;SDS011;16232;48.800;9.002;2023-11-19T11:20:07;4.10;;;2.70;;
92;SDS011;16232;48.800;9.002;2023-11-19T11:22:57;0.90;;;0.43;;
92;SDS011;16232;48.800;9.002;2023-11-19T11:25:48;1.73;;;0.90;;
92;SDS011;16232;48.800;9.002;2023-11-19T11:28:39;0.50;;;0.40;;
92;SDS011;16232;48.800;9.002;2023-11-19T11:31:31;1.67;;;0.90;;
92;SDS011;16232;48.800;9.002;2023-11-19T11:34:29;1.90;;;0.70;;
92;SDS011;16232;48.800;9.002;2023-11-19T11:37:19;1.40;;;0.60;;
92;SDS011;16232;48.800;9.002;2023-11-19T11:40:09;0.83;;;0.50;;
92;SDS011;16232;48.800;9.002;2023-11-19T11:42:59;2.33;;;0.50;;
92;SDS011;16232;48.800;9.002;2023-11-19T11:45:45;2.20;;;0.50;;
92;SDS011;16232;48.800;9.002;2023-11-19T11:48:31;1.63;;;0.67;;
92;SDS011;16232;48.800;9.002;2023-11-19T11:51:17;2.37;;;0.50;;
92;SDS011;16232;48.800;9.002;2023-11-19T11:54:03;0.57;;;0.57;;
92;SDS011;16232;48.800;9.002;2023-11-19T11:57:02;1.50;;;0.70;;
92;SDS011;16232;48.800;9.002;2023-11-19T11:59:48;0.83;;;0.40;;
92;SDS011;16232;48.800;9.002;2023-11-19T12:02:34;2.63;;;0.50;;
92;SDS011;16232;48.800;9.002;2023-11-19T12:05:20;0.83;;;0.60;;
92;SDS011;16232;48.800;9.002;2023-11-19T12:08:07;2.27;;;0.40;;
92;SDS011;16232;48.800;9.002;2023-11-19T12:10:55;0.67;;;0.40;;
92;SDS011;16232;48.800;9.002;2023-11-19T12:13:46;0.77;;;0.40;;
92;SDS011;16232;48.800;9.002;2023-11-19T12:16:33;1.60;;;0.67;;
92;SDS011;16232;48.800;9.002;2023-11-19T12:19:21;1.73;;;0.30;;
92;SDS011;16232;48.800;9.002;2023-11-19T12:22:09;1.17;;;0.47;;
92;SDS011;16232;48.800;9.002;2023-11-19T12:24:56;0.93;;;0.40;;
92;SDS011;16232;48.800;9.002;2023-11-19T12:27:43;1.63;;;0.53;;
92;SDS011;16232;48.800;9.002;2023-11-19T12:30:31;0.60;;;0.30;;
92;SDS011;16232;48.800;9.002;2023-11-19T12:33:17;1.47;;;0.30;;
92;SDS011;16232;48.800;9.002;2023-11-19T12:36:03;1.27;;;0.40;;
92;SDS011;16232;48.800;9.002;2023-11-19T12:38:50;2.37;;;0.40;;
92;SDS011;16232;48.800;9.002;2023-11-19T12:41:48;1.17;;;0.40;;
92;SDS011;16232;48.800;9.002;2023-11-19T12:44:34;1.17;;;0.30;;
92;SDS011;16232;48.800;9.002;2023-11-19T12:47:22;0.73;;;0.40;;
92;SDS011;16232;48.800;9.002;2023-11-19T12:50:08;0.77;;;0.40;;
92;SDS011;16232;48.800;9.002;2023-11-19T12:52:55;0.73;;;0.43;;
92;SDS011;16232;48.800;9.002;2023-11-19T12:55:41;1.27;;;0.40;;
92;SDS011;16232;48.800;9.002;2023-11-19T12:58:28;0.70;;;0.33;;
92;SDS011;16232;48.800;9.002;2023-11-19T13:01:15;1.23;;;0.33;;
92;SDS011;16232;48.800;9.002;2023-11-19T13:04:16;1.37;;;0.90;;
92;SDS011;16232;48.800;9.002;2023-11-19T13:07:02;0.87;;;0.37;;
92;SDS011;16232;48.800;9.002;2023-11-19T13:09:48;2.30;;;0.77;;
92;SDS011;16232;48.800;9.002;2023-11-19T13:12:37;1.67;;;1.23;;
92;SDS011;16232;48.800;9.002;2023-11-19T13:15:23;1.20;;;0.60;;
92;SDS011;16232;48.800;9.002;2023-11-19T13:18:10;0.63;;;0.60;;
92;SDS011;16232;48.800;9.002;2023-11-19T13:20:58;1.20;;;0.53;;
92;SDS011;16232;48.800;9.002;2023-11-19T13:23:44;0.63;;;0.40;;
92;SDS011;16232;48.800;9.002;2023-11-19T13:26:30;0.50;;;0.33;;
92;SDS011;16232;48.800;9.002;2023-11-19T13:29:16;1.77;;;0.43;;
92;SDS011;16232;48.800;9.002;2023-11-19T13:32:02;1.03;;;0.30;;
92;SDS011;16232;48.800;9.002;2023-11-19T13:34:49;2.40;;;0.60;;
92;SDS011;16232;48.800;9.002;2023-11-19T13:37:36;0.97;;;0.50;;
92;SDS011;16232;48.800;9.002;2023-11-19T13:40:22;1.43;;;0.50;;
92;SDS011;16232;48.800;9.002;2023-11-19T13:43:09;0.30;;;0.30;;
92;SDS011;16232;48.800;9.002;2023-11-19T13:45:55;1.20;;;0.33;;
92;SDS011;16232;48.800;9.002;2023-11-19T13:48:42;1.03;;;0.50;;
92;SDS011;16232;48.800;9.002;2023-11-19T13:51:28;1.10;;;0.50;;
92;SDS011;16232;48.800;9.002;2023-11-19T13:54:15;1.73;;;0.70;;
92;SDS011;16232;48.800;9.002;2023-11-19T13:57:03;2.00;;;0.70;;
92;SDS011;16232;48.800;9.002;2023-11-19T13:59:49;1.03;;;0.30;;
92;SDS011;16232;48.800;9.002;2023-11-19T14:02:35;1.30;;;0.47;;
92;SDS011;16232;48.800;9.002;2023-11-19T14:05:21;1.17;;;0.37;;
92;SDS011;16232;48.800;9.002;2023-11-19T14:08:07;1.40;;;0.43;;
92;SDS011;16232;48.800;9.002;2023-11-19T14:10:56;1.83;;;0.40;;
92;SDS011;16232;48.800;9.002;2023-11-19T14:13:42;0.80;;;0.53;;
92;SDS011;16232;48.800;9.002;2023-11-19T14:16:30;1.03;;;0.40;;
92;SDS011;16232;48.800;9.002;2023-11-19T14:19:18;0.93;;;0.50;;
92;SDS011;16232;48.800;9.002;2023-11-19T14:22:04;0.60;;;0.43;;
92;SDS011;16232;48.800;9.002;2023-11-19T14:24:50;2.00;;;0.40;;
92;SDS011;16232;48.800;9.002;2023-11-19T14:27:37;1.37;;;0.60;;
92;SDS011;16232;48.800;9.002;2023-11-19T14:30:24;2.03;;;0.60;;
92;SDS011;16232;48.800;9.002;2023-11-19T14:33:10;1.60;;;0.40;;
92;SDS011;16232;48.800;9.002;2023-11-19T14:35:56;1.37;;;0.43;;
92;SDS011;16232;48.800;9.002;2023-11-19T14:38:42;1.27;;;0.73;;
92;SDS011;16232;48.800;9.002;2023-11-19T14:41:28;1.93;;;0.60;;
92;SDS011;16232;48.800;9.002;2023-11-19T14:44:16;2.63;;;0.80;;
92;SDS011;16232;48.800;9.002;2023-11-19T14:47:03;1.37;;;0.40;;
92;SDS011;16232;48.800;9.002;2023-11-19T14:49:49;1.00;;;0.43;;
92;SDS011;16232;48.800;9.002;2023-11-19T14:52:35;1.20;;;0.50;;
92;SDS011;16232;48.800;9.002;2023-11-19T14:55:22;1.07;;;0.60;;
92;SDS011;16232;48.800;9.002;2023-11-19T14:58:08;0.73;;;0.50;;
92;SDS011;16232;48.800;9.002;2023-11-19T15:00:55;1.73;;;0.50;;
92;SDS011;16232;48.800;9.002;2023-11-19T15:03:41;1.33;;;0.40;;
92;SDS011;16232;48.800;9.002;2023-11-19T15:06:27;2.73;;;0.70;;
92;SDS011;16232;48.800;9.002;2023-11-19T15:09:17;0.47;;;0.40;;
92;SDS011;16232;48.800;9.002;2023-11-19T15:12:05;1.23;;;0.50;;
92;SDS011;16232;48.800;9.002;2023-11-19T15:14:50;1.87;;;0.53;;
92;SDS011;16232;48.800;9.002;2023-11-19T15:17:38;2.40;;;0.97;;
92;SDS011;16232;48.800;9.002;2023-11-19T15:20:24;1.00;;;0.47;;
92;SDS011;16232;48.800;9.002;2023-11-19T15:23:13;1.40;;;0.47;;
92;SDS011;16232;48.800;9.002;2023-11-19T15:25:59;1.30;;;0.40;;
92;SDS011;16232;48.800;9.002;2023-11-19T15:28:45;5.13;;;0.70;;
92;SDS011;16232;48.800;9.002;2023-11-19T15:31:31;0.73;;;0.47;;
92;SDS011;16232;48.800;9.002;2023-11-19T15:34:19;1.33;;;0.70;;
92;SDS011;16232;48.800;9.002;2023-11-19T15:37:05;1.23;;;0.60;;
92;SDS011;16232;48.800;9.002;2023-11-19T15:39:51;1.07;;;0.63;;
92;SDS011;16232;48.800;9.002;2023-11-19T15:42:37;2.00;;;0.50;;
92;SDS011;16232;48.800;9.002;2023-11-19T15:45:23;1.23;;;0.40;;
92;SDS011;16232;48.800;9.002;2023-11-19T15:48:09;2.13;;;0.60;;
92;SDS011;16232;48.800;9.002;2023-11-19T15:50:58;1.13;;;0.50;;
92;SDS011;16232;48.800;9.002;2023-11-19T15:53:45;1.50;;;0.60;;
92;SDS011;16232;48.800;9.002;2023-11-19T15:56:31;1.20;;;0.80;;
92;SDS011;16232;48.800;9.002;2023-11-19T15:59:17;1.57;;;0.83;;
92;SDS011;16232;48.800;9.002;2023-11-19T16:02:04;2.43;;;0.70;;
92;SDS011;16232;48.800;9.002;2023-11-19T16:04:50;1.10;;;0.70;;
92;SDS011;16232;48.800;9.002;2023-11-19T16:07:38;1.50;;;0.60;;
92;SDS011;16232;48.800;9.002;2023-11-19T16:10:24;0.90;;;0.60;;
92;SDS011;16232;48.800;9.002;2023-11-19T16:13:10;3.30;;;0.87;;
92;SDS011;16232;48.800;9.002;2023-11-19T16:15:56;2.60;;;1.10;;
92;SDS011;16232;48.800;9.002;2023-11-19T16:18:43;5.40;;;3.30;;
92;SDS011;16232;48.800;9.002;2023-11-19T16:21:29;0.60;;;0.60;;
92;SDS011;16232;48.800;9.002;2023-11-19T16:24:16;5.23;;;3.07;;
92;SDS011;16232;48.800;9.002;2023-11-19T16:27:02;1.87;;;0.80;;
92;SDS011;16232;48.800;9.002;2023-11-19T16:29:49;2.57;;;1.60;;
92;SDS011;16232;48.800;9.002;2023-11-19T16:32:35;1.50;;;1.00;;
92;SDS011;16232;48.800;9.002;2023-11-19T16:35:29;2.60;;;1.00;;
92;SDS011;16232;48.800;9.002;2023-11-19T16:38:15;1.97;;;1.57;;
92;SDS011;16232;48.800;9.002;2023-11-19T16:41:03;1.93;;;1.33;;
92;SDS011;16232;48.800;9.002;2023-11-19T16:43:49;2.10;;;0.80;;
92;SDS011;16232;48.800;9.002;2023-11-19T16:46:36;2.30;;;1.00;;
92;SDS011;16232;48.800;9.002;2023-11-19T16:49:22;2.80;;;0.67;;
92;SDS011;16232;48.800;9.002;2023-11-19T16:52:09;0.93;;;0.57;;
92;SDS011;16232;48.800;9.002;2023-11-19T16:54:55;2.60;;;1.03;;
92;SDS011;16232;48.800;9.002;2023-11-19T16:57:43;2.00;;;0.77;;
92;SDS011;16232;48.800;9.002;2023-11-19T17:00:10;3.63;;;0.90;;
92;SDS011;16232;48.800;9.002;2023-11-19T17:02:38;1.27;;;1.00;;
92;SDS011;16232;48.800;9.002;2023-11-19T17:05:07;2.27;;;1.67;;
92;SDS011;16232;48.800;9.002;2023-11-19T17:07:35;1.53;;;1.00;;
92;SDS011;16232;48.800;9.002;2023-11-19T17:10:03;1.73;;;0.70;;
92;SDS011;16232;48.800;9.002;2023-11-19T17:12:31;2.87;;;0.70;;
92;SDS011;16232;48.800;9.002;2023-11-19T17:15:00;1.00;;;0.80;;
92;SDS011;16232;48.800;9.002;2023-11-19T17:17:30;2.27;;;0.70;;
92;SDS011;16232;48.800;9.002;2023-11-19T17:20:01;1.53;;;0.70;;
92;SDS011;16232;48.800;9.002;2023-11-19T17:22:31;2.03;;;0.70;;
92;SDS011;16232;48.800;9.002;2023-11-19T17:24:59;3.00;;;1.00;;
92;SDS011;16232;48.800;9.002;2023-11-19T17:27:27;2.10;;;1.27;;
92;SDS011;16232;48.800;9.002;2023-11-19T17:29:56;1.50;;;0.83;;